createdAt,value
2019-06-08T00:02:06.476Z,100351.00
2019-06-08T00:04:39.723Z,100324.00
2019-06-08T00:07:13.155Z,100355.00
2019-06-08T00:09:46.230Z,100361.00
2019-06-08T00:12:19.112Z,100353.00
2019-06-08T00:14:52.164Z,100335.00
2019-06-08T00:17:37.783Z,100342.00
2019-06-08T00:19:59.462Z,100352.00
2019-06-08T00:22:32.492Z,100345.00
2019-06-08T00:25:05.544Z,100354.00
2019-06-08T00:27:38.697Z,100358.00
2019-06-08T00:30:11.622Z,100324.00
2019-06-08T00:32:44.683Z,100343.00
2019-06-08T00:35:18.567Z,100347.00
2019-06-08T00:37:51.656Z,100320.00
2019-06-08T00:40:25.773Z,100336.00
2019-06-08T00:42:58.837Z,100318.00
2019-06-08T00:45:32.972Z,100337.00
2019-06-08T00:48:06.260Z,100339.00
2019-06-08T00:50:39.245Z,100338.00
2019-06-08T00:53:12.503Z,100334.00
2019-06-08T00:55:45.461Z,100333.00
2019-06-08T00:58:20.318Z,100302.00
2019-06-08T01:00:52.644Z,100311.00
2019-06-08T01:03:25.825Z,100317.00
2019-06-08T01:06:03.938Z,100316.00
2019-06-08T01:08:36.931Z,100321.00
2019-06-08T01:11:09.844Z,100320.00
2019-06-08T01:13:43.616Z,100335.00
2019-06-08T01:16:16.516Z,100325.00
2019-06-08T01:18:50.851Z,100330.00
2019-06-08T01:21:25.569Z,100335.00
2019-06-08T01:23:59.533Z,100307.00
2019-06-08T01:26:32.491Z,100330.00
2019-06-08T01:29:05.655Z,100338.00
2019-06-08T01:31:38.721Z,100351.00
2019-06-08T01:34:12.196Z,100337.00
2019-06-08T01:36:46.259Z,100344.00
2019-06-08T01:39:21.025Z,100334.00
2019-06-08T01:41:53.924Z,100324.00
2019-06-08T01:44:28.075Z,100314.00
2019-06-08T01:47:01.209Z,100300.00
2019-06-08T01:49:34.408Z,100308.00
2019-06-08T01:52:07.383Z,100283.00
2019-06-08T01:54:41.835Z,100306.00
2019-06-08T01:57:14.887Z,100285.00
2019-06-08T01:59:48.000Z,100295.00
2019-06-08T02:02:20.879Z,100288.00
2019-06-08T02:04:54.341Z,100290.00
2019-06-08T02:07:28.302Z,100296.00
2019-06-08T02:10:02.310Z,100288.00
2019-06-08T02:12:35.418Z,100295.00
2019-06-08T02:15:10.399Z,100309.00
2019-06-08T02:17:43.313Z,100298.00
2019-06-08T02:20:16.544Z,100291.00
2019-06-08T02:22:49.462Z,100277.00
2019-06-08T02:25:23.907Z,100267.00
2019-06-08T02:27:56.876Z,100249.00
2019-06-08T02:30:34.067Z,100242.00
2019-06-08T02:33:05.711Z,100267.00
2019-06-08T02:35:38.899Z,100278.00
2019-06-08T02:38:13.550Z,100291.00
2019-06-08T02:40:46.536Z,100319.00
2019-06-08T02:43:19.742Z,100297.00
2019-06-08T02:45:54.084Z,100284.00
2019-06-08T02:48:27.165Z,100260.00
2019-06-08T02:51:00.955Z,100293.00
2019-06-08T02:53:35.959Z,100299.00
2019-06-08T02:56:08.805Z,100291.00
2019-06-08T02:58:47.188Z,100288.00
2019-06-08T03:01:22.558Z,100288.00
2019-06-08T03:03:56.340Z,100285.00
2019-06-08T03:06:32.275Z,100296.00
2019-06-08T03:09:07.866Z,100303.00
2019-06-08T03:11:41.320Z,100312.00
2019-06-08T03:14:15.148Z,100331.00
2019-06-08T03:16:48.175Z,100318.00
2019-06-08T03:19:22.895Z,100309.00
2019-06-08T03:22:02.075Z,100306.00
2019-06-08T03:24:43.802Z,100321.00
2019-06-08T03:27:16.252Z,100312.00
2019-06-08T03:29:50.542Z,100300.00
2019-06-08T03:32:23.551Z,100289.00
2019-06-08T03:34:57.550Z,100286.00
2019-06-08T03:37:30.576Z,100282.00
2019-06-08T03:40:05.545Z,100278.00
2019-06-08T03:42:37.727Z,100286.00
2019-06-08T03:45:12.303Z,100272.00
2019-06-08T03:47:46.236Z,100274.00
2019-06-08T03:50:20.096Z,100278.00
2019-06-08T03:52:52.946Z,100286.00
2019-06-08T03:55:26.009Z,100294.00
2019-06-08T03:57:58.913Z,100288.00
2019-06-08T04:00:33.351Z,100288.00
2019-06-08T04:03:06.334Z,100281.00
2019-06-08T04:05:40.753Z,100284.00
2019-06-08T04:08:13.592Z,100287.00
2019-06-08T04:10:46.810Z,100286.00
2019-06-08T04:13:19.899Z,100272.00
2019-06-08T04:15:53.921Z,100292.00
2019-06-08T04:18:26.919Z,100271.00
2019-06-08T04:21:00.277Z,100278.00
2019-06-08T04:23:33.302Z,100288.00
2019-06-08T04:26:06.543Z,100314.00
2019-06-08T04:28:40.508Z,100302.00
2019-06-08T04:31:13.922Z,100300.00
2019-06-08T04:33:46.987Z,100316.00
2019-06-08T04:36:20.411Z,100320.00
2019-06-08T04:38:53.446Z,100324.00
2019-06-08T04:41:26.807Z,100340.00
2019-06-08T04:43:59.627Z,100335.00
2019-06-08T04:46:35.957Z,100322.00
2019-06-08T04:49:08.982Z,100335.00
2019-06-08T04:51:45.052Z,100338.00
2019-06-08T04:54:17.129Z,100325.00
2019-06-08T04:56:50.216Z,100326.00
2019-06-08T04:59:24.306Z,100319.00
2019-06-08T05:01:57.342Z,100319.00
2019-06-08T05:04:30.570Z,100322.00
2019-06-08T05:07:03.508Z,100353.00
2019-06-08T05:09:36.456Z,100354.00
2019-06-08T05:12:09.927Z,100351.00
2019-06-08T05:14:43.078Z,100347.00
2019-06-08T05:17:16.155Z,100351.00
2019-06-08T05:19:50.271Z,100367.00
2019-06-08T05:22:23.390Z,100343.00
2019-06-08T05:24:56.441Z,100363.00
2019-06-08T05:27:29.715Z,100364.00
2019-06-08T05:30:08.530Z,100363.00
2019-06-08T05:32:39.404Z,100362.00
2019-06-08T05:35:12.730Z,100370.00
2019-06-08T05:37:46.195Z,100368.00
2019-06-08T05:40:19.462Z,100371.00
2019-06-08T05:42:52.482Z,100376.00
2019-06-08T05:45:25.460Z,100381.00
2019-06-08T05:47:59.460Z,100374.00
2019-06-08T05:50:33.570Z,100395.00
2019-06-08T05:53:06.445Z,100398.00
2019-06-08T05:55:41.648Z,100382.00
2019-06-08T05:58:14.858Z,100404.00
2019-06-08T06:00:48.417Z,100402.00
2019-06-08T06:03:21.339Z,100407.00
2019-06-08T06:05:54.393Z,100410.00
2019-06-08T06:08:27.682Z,100420.00
2019-06-08T06:11:00.994Z,100426.00
2019-06-08T06:13:34.227Z,100430.00
2019-06-08T06:16:08.776Z,100441.00
2019-06-08T06:18:42.923Z,100440.00
2019-06-08T06:21:16.736Z,100444.00
2019-06-08T06:23:49.749Z,100455.00
2019-06-08T06:26:22.901Z,100449.00
2019-06-08T06:28:56.176Z,100453.00
2019-06-08T06:31:31.226Z,100469.00
2019-06-08T06:34:04.183Z,100466.00
2019-06-08T06:36:37.538Z,100472.00
2019-06-08T06:39:14.510Z,100478.00
2019-06-08T06:41:49.959Z,100467.00
2019-06-08T06:44:21.902Z,100480.00
2019-06-08T06:46:55.077Z,100486.00
2019-06-08T06:49:28.317Z,100488.00
2019-06-08T06:52:02.264Z,100484.00
2019-06-08T06:54:38.758Z,100500.00
2019-06-08T06:57:11.798Z,100503.00
2019-06-08T06:59:45.665Z,100508.00
2019-06-08T07:02:18.817Z,100517.00
2019-06-08T07:04:52.489Z,100520.00
2019-06-08T07:07:25.532Z,100524.00
2019-06-08T07:09:58.523Z,100538.00
2019-06-08T07:12:31.565Z,100525.00
2019-06-08T07:15:05.307Z,100530.00
2019-06-08T07:17:38.503Z,100539.00
2019-06-08T07:20:14.641Z,100550.00
2019-06-08T07:22:50.135Z,100555.00
2019-06-08T07:25:23.292Z,100571.00
2019-06-08T07:27:59.275Z,100572.00
2019-06-08T07:30:32.754Z,100592.00
2019-06-08T07:33:05.689Z,100586.00
2019-06-08T07:35:39.045Z,100599.00
2019-06-08T07:38:12.216Z,100595.00
2019-06-08T07:40:45.322Z,100610.00
2019-06-08T07:43:18.199Z,100607.00
2019-06-08T07:45:51.906Z,100610.00
2019-06-08T07:48:25.300Z,100604.00
2019-06-08T07:50:59.871Z,100610.00
2019-06-08T07:53:33.832Z,100615.00
2019-06-08T07:56:07.068Z,100612.00
2019-06-08T07:58:40.269Z,100639.00
2019-06-08T08:01:13.744Z,100629.00
2019-06-08T08:03:47.918Z,100637.00
2019-06-08T08:06:21.207Z,100641.00
2019-06-08T08:08:54.816Z,100634.00
2019-06-08T08:11:28.193Z,100642.00
2019-06-08T08:14:01.085Z,100636.00
2019-06-08T08:16:34.806Z,100640.00
2019-06-08T08:19:09.226Z,100641.00
2019-06-08T08:21:42.726Z,100641.00
2019-06-08T08:24:17.250Z,100638.00
2019-06-08T08:26:52.631Z,100643.00
2019-06-08T08:29:25.374Z,100630.00
2019-06-08T08:31:59.871Z,100612.00
2019-06-08T08:34:32.532Z,100616.00
2019-06-08T08:37:07.122Z,100617.00
2019-06-08T08:39:39.743Z,100613.00
2019-06-08T08:42:13.489Z,100619.00
2019-06-08T08:44:48.495Z,100630.00
2019-06-08T08:47:20.791Z,100638.00
2019-06-08T08:49:56.056Z,100622.00
2019-06-08T08:52:36.483Z,100620.00
2019-06-08T08:55:08.696Z,100623.00
2019-06-08T08:57:41.842Z,100623.00
2019-06-08T09:00:14.791Z,100634.00
2019-06-08T09:02:50.181Z,100644.00
2019-06-08T09:05:23.265Z,100646.00
2019-06-08T09:07:58.736Z,100634.00
2019-06-08T09:10:30.524Z,100631.00
2019-06-08T09:13:04.871Z,100639.00
2019-06-08T09:15:37.975Z,100656.00
2019-06-08T09:18:11.735Z,100667.00
2019-06-08T09:20:44.774Z,100680.00
2019-06-08T09:23:21.594Z,100679.00
2019-06-08T09:25:55.725Z,100694.00
2019-06-08T09:28:29.746Z,100701.00
2019-06-08T09:31:04.073Z,100705.00
2019-06-08T09:33:38.774Z,100700.00
2019-06-08T09:36:11.256Z,100698.00
2019-06-08T09:38:47.772Z,100695.00
2019-06-08T09:41:20.648Z,100694.00
2019-06-08T09:43:55.266Z,100692.00
2019-06-08T09:46:28.052Z,100699.00
2019-06-08T09:49:07.584Z,100696.00
2019-06-08T09:51:37.917Z,100699.00
2019-06-08T09:54:15.940Z,100698.00
2019-06-08T09:56:49.116Z,100711.00
2019-06-08T09:59:23.091Z,100699.00
2019-06-08T10:02:00.990Z,100707.00
2019-06-08T10:04:34.743Z,100715.00
2019-06-08T10:07:11.235Z,100727.00
2019-06-08T10:09:47.369Z,100732.00
2019-06-08T10:12:22.844Z,100740.00
2019-06-08T10:14:56.714Z,100751.00
2019-06-08T10:17:30.826Z,100759.00
2019-06-08T10:20:07.399Z,100761.00
2019-06-08T10:22:39.857Z,100767.00
2019-06-08T10:25:17.517Z,100775.00
2019-06-08T10:27:50.521Z,100769.00
2019-06-08T10:30:23.355Z,100770.00
2019-06-08T10:33:00.484Z,100784.00
2019-06-08T10:35:30.785Z,100786.00
2019-06-08T10:38:07.953Z,100789.00
2019-06-08T10:40:39.994Z,100790.00
2019-06-08T10:43:14.554Z,100797.00
2019-06-08T10:45:48.305Z,100796.00
2019-06-08T10:48:22.017Z,100801.00
2019-06-08T10:50:57.986Z,100802.00
2019-06-08T10:53:44.964Z,100796.00
2019-06-08T10:56:10.235Z,100798.00
2019-06-08T10:58:42.302Z,100800.00
2019-06-08T11:01:18.580Z,100791.00
2019-06-08T11:03:50.988Z,100807.00
2019-06-08T11:06:27.031Z,100804.00
2019-06-08T11:09:03.751Z,100817.00
2019-06-08T11:11:34.359Z,100803.00
2019-06-08T11:14:12.068Z,100795.00
2019-06-08T11:16:41.933Z,100790.00
2019-06-08T11:19:17.748Z,100798.00
2019-06-08T11:21:49.679Z,100798.00
2019-06-08T11:24:25.260Z,100797.00
2019-06-08T11:26:57.801Z,100808.00
2019-06-08T11:29:32.957Z,100821.00
2019-06-08T11:32:08.724Z,100823.00
2019-06-08T11:34:40.469Z,100815.00
2019-06-08T11:37:13.848Z,100824.00
2019-06-08T11:39:49.067Z,100819.00
2019-06-08T11:42:26.256Z,100844.00
2019-06-08T11:45:00.155Z,100833.00
2019-06-08T11:47:32.803Z,100809.00
2019-06-08T11:50:11.695Z,100794.00
2019-06-08T11:52:41.989Z,100806.00
2019-06-08T11:55:15.475Z,100811.00
2019-06-08T11:57:48.807Z,100816.00
2019-06-08T12:00:27.692Z,100821.00
2019-06-08T12:02:58.259Z,100829.00
2019-06-08T12:05:31.338Z,100822.00
2019-06-08T12:08:04.429Z,100817.00
2019-06-08T12:10:38.216Z,100816.00
2019-06-08T12:13:12.831Z,100830.00
2019-06-08T12:15:45.626Z,100825.00
2019-06-08T12:18:18.725Z,100837.00
2019-06-08T12:20:51.622Z,100845.00
2019-06-08T12:23:24.531Z,100855.00
2019-06-08T12:25:57.752Z,100863.00
2019-06-08T12:28:30.688Z,100869.00
2019-06-08T12:31:04.631Z,100880.00
2019-06-08T12:33:39.096Z,100883.00
2019-06-08T12:36:13.653Z,100876.00
2019-06-08T12:38:48.550Z,100898.00
2019-06-08T12:41:20.425Z,100904.00
2019-06-08T12:43:53.473Z,100911.00
2019-06-08T12:46:27.984Z,100893.00
2019-06-08T12:49:01.021Z,100904.00
2019-06-08T12:51:34.016Z,100903.00
2019-06-08T12:54:08.450Z,100907.00
2019-06-08T12:56:42.332Z,100916.00
2019-06-08T12:59:18.539Z,100921.00
2019-06-08T13:01:49.949Z,100922.00
2019-06-08T13:04:23.866Z,100921.00
2019-06-08T13:06:58.422Z,100919.00
2019-06-08T13:09:31.433Z,100844.00
2019-06-08T13:12:04.756Z,100904.00
2019-06-08T13:14:38.515Z,100912.00
2019-06-08T13:17:13.027Z,100917.00
2019-06-08T13:19:48.106Z,100922.00
2019-06-08T13:22:27.284Z,100923.00
2019-06-08T13:24:54.390Z,100921.00
2019-06-08T13:27:28.215Z,100925.00
2019-06-08T13:30:01.169Z,100917.00
2019-06-08T13:32:34.583Z,100911.00
2019-06-08T13:35:10.312Z,100912.00
2019-06-08T13:37:42.995Z,100895.00
2019-06-08T13:40:18.584Z,100904.00
2019-06-08T13:42:51.221Z,100914.00
2019-06-08T13:45:24.302Z,100913.00
2019-06-08T13:47:58.705Z,100931.00
2019-06-08T13:50:31.399Z,100927.00
2019-06-08T13:53:04.826Z,100948.00
2019-06-08T13:55:49.541Z,100944.00
2019-06-08T13:58:13.550Z,100954.00
2019-06-08T14:00:47.770Z,100951.00
2019-06-08T14:03:21.685Z,100935.00
2019-06-08T14:05:54.622Z,100923.00
2019-06-08T14:08:32.677Z,100911.00
2019-06-08T14:11:02.339Z,100903.00
2019-06-08T14:13:37.627Z,100902.00
2019-06-08T14:16:11.480Z,100916.00
2019-06-08T14:18:43.945Z,100940.00
2019-06-08T14:21:21.445Z,100942.00
2019-06-08T14:23:51.457Z,100945.00
2019-06-08T14:26:25.886Z,100958.00
2019-06-08T14:29:01.423Z,100954.00
2019-06-08T14:31:33.093Z,100963.00
2019-06-08T14:34:10.036Z,100962.00
2019-06-08T14:36:40.978Z,100970.00
2019-06-08T14:39:14.430Z,100980.00
2019-06-08T14:41:49.406Z,100975.00
2019-06-08T14:44:22.654Z,100980.00
2019-06-08T14:46:57.943Z,100972.00
2019-06-08T14:49:34.710Z,100969.00
2019-06-08T14:52:04.610Z,100978.00
2019-06-08T14:54:38.611Z,100978.00
2019-06-08T14:57:11.559Z,100984.00
2019-06-08T14:59:45.670Z,100986.00
2019-06-08T15:02:19.392Z,100989.00
2019-06-08T15:04:52.389Z,100991.00
2019-06-08T15:07:27.349Z,101000.00
2019-06-08T15:09:59.669Z,101008.00
2019-06-08T15:12:32.550Z,101003.00
2019-06-08T15:15:08.313Z,101006.00
2019-06-08T15:17:39.951Z,101002.00
2019-06-08T15:20:13.298Z,101005.00
2019-06-08T15:22:46.265Z,101003.00
2019-06-08T15:25:20.435Z,101003.00
2019-06-08T15:27:53.665Z,101001.00
2019-06-08T15:30:29.391Z,101008.00
2019-06-08T15:33:00.951Z,101014.00
2019-06-08T15:35:33.996Z,101018.00
2019-06-08T15:38:08.354Z,101031.00
2019-06-08T15:40:41.123Z,101041.00
2019-06-08T15:43:14.133Z,101058.00
2019-06-08T15:45:48.837Z,101048.00
2019-06-08T15:48:22.121Z,101045.00
2019-06-08T15:50:55.164Z,101043.00
2019-06-08T15:53:29.503Z,101045.00
2019-06-08T15:56:02.417Z,101045.00
2019-06-08T15:58:35.469Z,101053.00
2019-06-08T16:01:08.779Z,101051.00
2019-06-08T16:03:41.624Z,101058.00
2019-06-08T16:06:14.528Z,101057.00
2019-06-08T16:08:47.570Z,101055.00
2019-06-08T16:11:20.488Z,101065.00
2019-06-08T16:13:53.386Z,101070.00
2019-06-08T16:16:27.045Z,101068.00
2019-06-08T16:19:00.035Z,101068.00
2019-06-08T16:21:34.279Z,101068.00
2019-06-08T16:24:07.386Z,101064.00
2019-06-08T16:26:52.330Z,101070.00
2019-06-08T16:29:14.429Z,101081.00
2019-06-08T16:31:47.454Z,101076.00
2019-06-08T16:34:20.468Z,101084.00
2019-06-08T16:36:54.003Z,101083.00
2019-06-08T16:39:28.550Z,101088.00
2019-06-08T16:42:02.452Z,101089.00
2019-06-08T16:44:36.294Z,101089.00
2019-06-08T16:47:09.471Z,101099.00
2019-06-08T16:49:42.417Z,101105.00
2019-06-08T16:52:17.180Z,101092.00
2019-06-08T16:54:49.726Z,101100.00
2019-06-08T16:57:22.639Z,101091.00
2019-06-08T16:59:56.134Z,101094.00
2019-06-08T17:02:28.996Z,101101.00
2019-06-08T17:05:02.171Z,101108.00
2019-06-08T17:07:35.530Z,101109.00
2019-06-08T17:10:12.313Z,101113.00
2019-06-08T17:12:45.390Z,101114.00
2019-06-08T17:15:18.483Z,101116.00
2019-06-08T17:17:51.465Z,101119.00
2019-06-08T17:20:24.536Z,101125.00
2019-06-08T17:22:57.437Z,101134.00
2019-06-08T17:25:30.840Z,101151.00
2019-06-08T17:28:03.793Z,101155.00
2019-06-08T17:30:37.628Z,101159.00
2019-06-08T17:33:10.631Z,101168.00
2019-06-08T17:35:43.756Z,101174.00
2019-06-08T17:38:16.805Z,101168.00
2019-06-08T17:40:49.855Z,101182.00
2019-06-08T17:43:22.754Z,101190.00
2019-06-08T17:45:55.859Z,101188.00
2019-06-08T17:48:28.980Z,101194.00
2019-06-08T17:51:01.924Z,101196.00
2019-06-08T17:53:35.158Z,101206.00
2019-06-08T17:56:08.505Z,101201.00
2019-06-08T17:58:41.524Z,101202.00
2019-06-08T18:01:17.201Z,101208.00
2019-06-08T18:03:49.520Z,101218.00
2019-06-08T18:06:24.317Z,101214.00
2019-06-08T18:08:58.721Z,101220.00
2019-06-08T18:11:31.514Z,101221.00
2019-06-08T18:14:04.553Z,101221.00
2019-06-08T18:16:40.619Z,101229.00
2019-06-08T18:19:31.847Z,101216.00
2019-06-08T18:22:06.516Z,101226.00
2019-06-08T18:24:40.898Z,101227.00
2019-06-08T18:27:14.329Z,101229.00
2019-06-08T18:29:48.668Z,101240.00
2019-06-08T18:32:22.064Z,101250.00
2019-06-08T18:34:57.111Z,101252.00
2019-06-08T18:37:29.621Z,101248.00
2019-06-08T18:40:02.682Z,101260.00
2019-06-08T18:42:37.976Z,101260.00
2019-06-08T18:45:13.153Z,101268.00
2019-06-08T18:47:48.393Z,101270.00
2019-06-08T18:50:21.769Z,101275.00
2019-06-08T18:52:54.741Z,101271.00
2019-06-08T18:55:27.987Z,101270.00
2019-06-08T18:58:13.943Z,101280.00
2019-06-08T19:00:44.720Z,101290.00
2019-06-08T19:03:17.615Z,101298.00
2019-06-08T19:05:52.155Z,101302.00
2019-06-08T19:08:27.677Z,101312.00
2019-06-08T19:10:59.390Z,101317.00
2019-06-08T19:13:32.758Z,101320.00
2019-06-08T19:16:07.565Z,101324.00
2019-06-08T19:18:43.623Z,101325.00
2019-06-08T19:21:14.193Z,101333.00
2019-06-08T19:23:49.238Z,101335.00
2019-06-08T19:26:21.647Z,101345.00
2019-06-08T19:28:54.496Z,101349.00
2019-06-08T19:31:27.687Z,101357.00
2019-06-08T19:34:00.723Z,101366.00
2019-06-08T19:36:33.816Z,101368.00
2019-06-08T19:39:07.924Z,101376.00
2019-06-08T19:41:41.481Z,101382.00
2019-06-08T19:44:15.237Z,101384.00
2019-06-08T19:46:52.324Z,101382.00
2019-06-08T19:49:23.150Z,101389.00
2019-06-08T19:51:57.959Z,101395.00
2019-06-08T19:54:30.612Z,101399.00
2019-06-08T19:57:03.602Z,101404.00
2019-06-08T19:59:38.268Z,101412.00
2019-06-08T20:02:11.517Z,101410.00
2019-06-08T20:04:44.783Z,101409.00
2019-06-08T20:07:17.931Z,101414.00
2019-06-08T20:09:51.347Z,101424.00
2019-06-08T20:12:24.487Z,101420.00
2019-06-08T20:14:57.728Z,101427.00
2019-06-08T20:17:30.763Z,101427.00
2019-06-08T20:20:03.652Z,101426.00
2019-06-08T20:22:37.456Z,101425.00
2019-06-08T20:25:10.840Z,101423.00
2019-06-08T20:27:45.248Z,101426.00
2019-06-08T20:30:18.611Z,101436.00
2019-06-08T20:32:53.157Z,101445.00
2019-06-08T20:35:27.868Z,101445.00
2019-06-08T20:38:00.099Z,101452.00
2019-06-08T20:40:33.157Z,101454.00
2019-06-08T20:43:07.169Z,101453.00
2019-06-08T20:45:40.125Z,101460.00
2019-06-08T20:48:13.546Z,101474.00
2019-06-08T20:50:48.822Z,101476.00
2019-06-08T20:53:20.935Z,101480.00
2019-06-08T20:55:54.128Z,101488.00
2019-06-08T20:58:28.369Z,101492.00
2019-06-08T21:01:01.366Z,101495.00
2019-06-08T21:03:34.518Z,101507.00
2019-06-08T21:06:09.130Z,101504.00
2019-06-08T21:08:42.260Z,101499.00
2019-06-08T21:11:17.473Z,101501.00
2019-06-08T21:13:51.688Z,101507.00
2019-06-08T21:16:27.703Z,101505.00
2019-06-08T21:19:00.454Z,101510.00
2019-06-08T21:21:33.441Z,101518.00
2019-06-08T21:24:07.812Z,101526.00
2019-06-08T21:26:40.811Z,101526.00
2019-06-08T21:29:14.157Z,101538.00
2019-06-08T21:31:49.296Z,101544.00
2019-06-08T21:34:21.856Z,101541.00
2019-06-08T21:36:56.488Z,101549.00
2019-06-08T21:39:29.068Z,101542.00
2019-06-08T21:42:03.214Z,101555.00
2019-06-08T21:44:37.256Z,101549.00
2019-06-08T21:47:11.404Z,101553.00
2019-06-08T21:49:47.525Z,101568.00
2019-06-08T21:52:19.678Z,101563.00
2019-06-08T21:54:52.873Z,101569.00
2019-06-08T21:57:27.732Z,101578.00
2019-06-08T22:00:21.921Z,101574.00
2019-06-08T22:02:34.718Z,101571.00
2019-06-08T22:05:08.433Z,101579.00
2019-06-08T22:07:41.542Z,101578.00
2019-06-08T22:10:14.397Z,101578.00
2019-06-08T22:12:48.385Z,101588.00
2019-06-08T22:15:21.741Z,101590.00
2019-06-08T22:17:54.952Z,101583.00
2019-06-08T22:20:27.910Z,101589.00
2019-06-08T22:23:01.049Z,101586.00
2019-06-08T22:25:34.271Z,101593.00
2019-06-08T22:28:07.411Z,101594.00
2019-06-08T22:30:43.137Z,101595.00
2019-06-08T22:33:14.636Z,101591.00
2019-06-08T22:35:47.784Z,101601.00
2019-06-08T22:38:20.877Z,101595.00
2019-06-08T22:40:54.785Z,101588.00
2019-06-08T22:43:28.428Z,101583.00
2019-06-08T22:46:02.271Z,101586.00
2019-06-08T22:48:38.421Z,101589.00
2019-06-08T22:51:10.936Z,101602.00
2019-06-08T22:53:45.102Z,101590.00
2019-06-08T22:56:18.468Z,101590.00
2019-06-08T22:58:51.484Z,101588.00
2019-06-08T23:01:27.693Z,101581.00
2019-06-08T23:04:00.945Z,101576.00
2019-06-08T23:06:33.598Z,101573.00
2019-06-08T23:09:08.753Z,101569.00
2019-06-08T23:11:41.137Z,101561.00
2019-06-08T23:14:14.640Z,101561.00
2019-06-08T23:16:47.509Z,101558.00
2019-06-08T23:19:20.505Z,101538.00
2019-06-08T23:21:53.598Z,101540.00
2019-06-08T23:24:27.496Z,101545.00
2019-06-08T23:27:02.138Z,101543.00
2019-06-08T23:29:37.948Z,101549.00
2019-06-08T23:32:11.612Z,101557.00
2019-06-08T23:34:44.093Z,101549.00
2019-06-08T23:37:24.445Z,101544.00
2019-06-08T23:39:59.031Z,101533.00
2019-06-08T23:42:32.137Z,101531.00
2019-06-08T23:45:05.879Z,101531.00
2019-06-08T23:47:39.458Z,101541.00
2019-06-08T23:50:14.675Z,101544.00
2019-06-08T23:52:47.710Z,101534.00
2019-06-08T23:55:20.762Z,101535.00
2019-06-08T23:57:53.790Z,101536.00
